createdAt,value
2023-11-12T00:00:39.191Z,82.97
2023-11-12T00:01:39.132Z,83.07
2023-11-12T00:02:39.122Z,83.28
2023-11-12T00:03:39.166Z,82.77
2023-11-12T00:04:39.076Z,82.77
2023-11-12T00:05:39.104Z,82.77
2023-11-12T00:06:39.100Z,82.97
2023-11-12T00:07:39.104Z,83.18
2023-11-12T00:08:39.128Z,83.49
2023-11-12T00:09:39.036Z,83.70
2023-11-12T00:10:39.022Z,83.45
2023-11-12T00:11:39.027Z,83.80
2023-11-12T00:12:38.996Z,83.80
2023-11-12T00:13:38.974Z,83.18
2023-11-12T00:14:38.991Z,83.28
2023-11-12T00:15:38.966Z,83.18
2023-11-12T00:16:39.013Z,83.25
2023-11-12T00:17:39.082Z,83.14
2023-11-12T00:18:39.771Z,82.93
2023-11-12T00:19:38.942Z,82.83
2023-11-12T00:20:38.899Z,82.93
2023-11-12T00:21:38.943Z,83.14
2023-11-12T00:22:38.931Z,83.25
2023-11-12T00:23:38.924Z,83.14
2023-11-12T00:24:38.914Z,83.25
2023-11-12T00:25:38.855Z,82.73
2023-11-12T00:26:38.882Z,82.73
2023-11-12T00:27:38.833Z,82.87
2023-11-12T00:28:38.858Z,83.07
2023-11-12T00:29:38.829Z,82.87
2023-11-12T00:30:38.854Z,82.97
2023-11-12T00:31:38.863Z,83.28
2023-11-12T00:32:38.914Z,83.39
2023-11-12T00:33:41.189Z,83.18
2023-11-12T00:34:38.768Z,83.07
2023-11-12T00:35:38.764Z,83.18
2023-11-12T00:36:38.781Z,83.28
2023-11-12T00:37:38.747Z,83.49
2023-11-12T00:38:38.773Z,83.70
2023-11-12T00:39:38.753Z,83.39
2023-11-12T00:40:38.745Z,83.18
2023-11-12T00:41:38.703Z,83.39
2023-11-12T00:42:38.730Z,83.39
2023-11-12T00:43:38.671Z,83.39
2023-11-12T00:44:38.691Z,83.28
2023-11-12T00:45:38.790Z,83.59
2023-11-12T00:46:38.669Z,83.90
2023-11-12T00:47:38.695Z,83.90
2023-11-12T00:48:38.633Z,84.00
2023-11-12T00:49:38.628Z,84.21
2023-11-12T00:50:38.612Z,83.90
2023-11-12T00:51:38.657Z,83.59
2023-11-12T00:52:38.610Z,83.59
2023-11-12T00:53:38.576Z,83.59
2023-11-12T00:54:38.570Z,83.49
2023-11-12T00:55:38.554Z,83.39
2023-11-12T00:56:38.562Z,83.49
2023-11-12T00:57:38.544Z,83.49
2023-11-12T00:58:38.528Z,83.59
2023-11-12T00:59:38.516Z,83.70
2023-11-12T01:00:38.514Z,83.39
2023-11-12T01:01:38.552Z,83.28
2023-11-12T01:02:38.605Z,83.39
2023-11-12T01:03:38.645Z,83.70
2023-11-12T01:04:38.478Z,83.49
2023-11-12T01:05:38.481Z,83.59
2023-11-12T01:06:38.469Z,83.49
2023-11-12T01:07:38.442Z,83.80
2023-11-12T01:08:38.433Z,83.59
2023-11-12T01:09:38.448Z,83.55
2023-11-12T01:10:38.405Z,83.59
2023-11-12T01:11:38.436Z,83.70
2023-11-12T01:12:38.377Z,84.21
2023-11-12T01:13:38.363Z,83.90
2023-11-12T01:14:38.388Z,84.21
2023-11-12T01:15:38.347Z,84.21
2023-11-12T01:16:38.400Z,84.11
2023-11-12T01:17:38.525Z,83.97
2023-11-12T01:18:38.372Z,84.11
2023-11-12T01:19:38.306Z,83.80
2023-11-12T01:20:38.316Z,83.90
2023-11-12T01:21:38.345Z,84.00
2023-11-12T01:22:38.282Z,84.11
2023-11-12T01:23:38.276Z,84.31
2023-11-12T01:24:38.272Z,83.90
2023-11-12T01:25:38.252Z,84.11
2023-11-12T01:26:38.272Z,84.31
2023-11-12T01:27:38.229Z,84.62
2023-11-12T01:28:38.215Z,84.62
2023-11-12T01:29:38.210Z,84.42
2023-11-12T01:30:38.223Z,84.31
2023-11-12T01:31:38.236Z,84.11
2023-11-12T01:32:38.192Z,84.21
2023-11-12T01:33:38.186Z,84.42
2023-11-12T01:34:38.175Z,84.21
2023-11-12T01:35:38.152Z,84.31
2023-11-12T01:36:38.164Z,84.62
2023-11-12T01:37:38.133Z,84.62
2023-11-12T01:38:38.125Z,84.42
2023-11-12T01:39:38.127Z,84.21
2023-11-12T01:40:38.101Z,84.42
2023-11-12T01:41:38.111Z,84.72
2023-11-12T01:42:38.082Z,84.72
2023-11-12T01:43:38.089Z,84.31
2023-11-12T01:44:38.059Z,84.52
2023-11-12T01:45:38.126Z,84.42
2023-11-12T01:46:38.188Z,84.62
2023-11-12T01:47:38.086Z,84.31
2023-11-12T01:48:38.089Z,84.00
2023-11-12T01:49:37.995Z,83.90
2023-11-12T01:50:37.999Z,83.80
2023-11-12T01:51:38.075Z,84.21
2023-11-12T01:52:37.989Z,84.21
2023-11-12T01:53:37.982Z,84.42
2023-11-12T01:54:37.986Z,84.52
2023-11-12T01:55:37.948Z,84.31
2023-11-12T01:56:37.948Z,84.11
2023-11-12T01:57:37.932Z,84.42
2023-11-12T01:58:37.925Z,84.42
2023-11-12T01:59:37.901Z,84.52
2023-11-12T02:00:37.917Z,84.31
2023-11-12T02:01:37.923Z,84.42
2023-11-12T02:02:37.942Z,84.42
2023-11-12T02:03:38.037Z,84.62
2023-11-12T02:04:37.867Z,84.72
2023-11-12T02:05:37.841Z,84.21
2023-11-12T02:06:37.925Z,84.52
2023-11-12T02:07:37.810Z,84.21
2023-11-12T02:08:37.825Z,84.42
2023-11-12T02:09:38.013Z,84.31
2023-11-12T02:10:37.842Z,84.21
2023-11-12T02:11:37.788Z,84.52
2023-11-12T02:12:37.851Z,84.31
2023-11-12T02:13:37.780Z,84.11
2023-11-12T02:14:37.752Z,84.11
2023-11-12T02:15:37.817Z,84.11
2023-11-12T02:16:37.790Z,84.00
2023-11-12T02:17:37.729Z,84.52
2023-11-12T02:18:37.734Z,84.52
2023-11-12T02:19:37.705Z,84.52
2023-11-12T02:20:37.701Z,84.62
2023-11-12T02:21:37.733Z,84.62
2023-11-12T02:22:37.678Z,84.62
2023-11-12T02:23:37.711Z,84.83
2023-11-12T02:24:37.728Z,84.52
2023-11-12T02:25:37.635Z,84.83
2023-11-12T02:26:37.647Z,84.42
2023-11-12T02:27:37.651Z,84.72
2023-11-12T02:28:37.620Z,84.93
2023-11-12T02:29:37.595Z,85.28
2023-11-12T02:30:37.650Z,85.24
2023-11-12T02:31:37.664Z,84.93
2023-11-12T02:32:37.621Z,84.83
2023-11-12T02:33:37.586Z,85.14
2023-11-12T02:34:37.556Z,85.03
2023-11-12T02:35:37.532Z,84.52
2023-11-12T02:36:37.598Z,84.83
2023-11-12T02:37:37.527Z,84.62
2023-11-12T02:38:37.524Z,84.83
2023-11-12T02:39:37.546Z,84.83
2023-11-12T02:40:37.499Z,85.14
2023-11-12T02:41:37.501Z,85.14
2023-11-12T02:42:37.518Z,85.14
2023-11-12T02:43:37.456Z,85.24
2023-11-12T02:44:37.451Z,85.38
2023-11-12T02:45:37.476Z,85.49
2023-11-12T02:46:37.496Z,85.65
2023-11-12T02:47:37.464Z,85.65
2023-11-12T02:48:37.467Z,85.59
2023-11-12T02:49:37.406Z,85.79
2023-11-12T02:50:37.402Z,86.00
2023-11-12T02:51:37.438Z,85.96
2023-11-12T02:52:37.370Z,85.79
2023-11-12T02:53:37.358Z,85.65
2023-11-12T02:54:37.394Z,85.65
2023-11-12T02:55:37.341Z,85.49
2023-11-12T02:56:37.354Z,85.34
2023-11-12T02:57:37.339Z,85.59
2023-11-12T02:58:37.333Z,85.59
2023-11-12T02:59:37.296Z,85.79
2023-11-12T03:00:37.382Z,86.06
2023-11-12T03:01:37.341Z,85.86
2023-11-12T03:02:37.297Z,85.75
2023-11-12T03:03:37.378Z,85.65
2023-11-12T03:04:37.261Z,85.55
2023-11-12T03:05:37.236Z,85.44
2023-11-12T03:06:37.304Z,85.24
2023-11-12T03:07:37.206Z,85.14
2023-11-12T03:08:37.213Z,85.34
2023-11-12T03:09:37.223Z,85.24
2023-11-12T03:10:37.203Z,85.03
2023-11-12T03:11:37.183Z,84.93
2023-11-12T03:12:37.240Z,84.93
2023-11-12T03:13:37.157Z,84.83
2023-11-12T03:14:37.152Z,84.83
2023-11-12T03:15:37.139Z,84.83
2023-11-12T03:16:37.149Z,85.03
2023-11-12T03:17:37.140Z,84.93
2023-11-12T03:18:37.173Z,84.93
2023-11-12T03:19:37.088Z,85.03
2023-11-12T03:20:37.085Z,85.14
2023-11-12T03:21:37.135Z,84.93
2023-11-12T03:22:37.078Z,85.03
2023-11-12T03:23:37.069Z,85.03
2023-11-12T03:24:37.134Z,85.14
2023-11-12T03:25:37.030Z,85.24
2023-11-12T03:26:37.067Z,84.83
2023-11-12T03:27:37.063Z,84.93
2023-11-12T03:28:37.025Z,85.14
2023-11-12T03:29:37.000Z,85.34
2023-11-12T03:30:37.006Z,84.93
2023-11-12T03:31:37.037Z,84.93
2023-11-12T03:32:37.001Z,84.62
2023-11-12T03:33:36.999Z,84.72
2023-11-12T03:34:36.954Z,85.03
2023-11-12T03:35:36.949Z,84.93
2023-11-12T03:36:36.972Z,85.03
2023-11-12T03:37:36.896Z,85.14
2023-11-12T03:38:36.906Z,85.34
2023-11-12T03:39:36.932Z,85.38
2023-11-12T03:40:36.886Z,85.28
2023-11-12T03:41:36.898Z,85.17
2023-11-12T03:42:36.959Z,85.24
2023-11-12T03:43:36.852Z,85.44
2023-11-12T03:44:36.843Z,85.38
2023-11-12T03:45:36.859Z,85.34
2023-11-12T03:46:37.071Z,85.55
2023-11-12T03:47:36.851Z,85.65
2023-11-12T03:48:36.892Z,85.44
2023-11-12T03:49:36.772Z,85.03
2023-11-12T03:50:36.783Z,85.03
2023-11-12T03:51:36.833Z,84.83
2023-11-12T03:52:36.760Z,85.14
2023-11-12T03:53:36.760Z,85.24
2023-11-12T03:54:36.784Z,85.34
2023-11-12T03:55:36.718Z,85.14
2023-11-12T03:56:36.740Z,85.24
2023-11-12T03:57:36.761Z,85.14
2023-11-12T03:58:36.705Z,85.14
2023-11-12T03:59:36.686Z,85.34
2023-11-12T04:00:36.708Z,84.72
2023-11-12T04:01:36.758Z,84.62
2023-11-12T04:02:36.754Z,84.72
2023-11-12T04:03:36.875Z,85.03
2023-11-12T04:04:36.743Z,85.03
2023-11-12T04:05:36.620Z,84.83
2023-11-12T04:06:36.653Z,85.03
2023-11-12T04:07:36.609Z,85.03
2023-11-12T04:08:36.609Z,84.83
2023-11-12T04:09:36.606Z,84.66
2023-11-12T04:10:36.589Z,84.77
2023-11-12T04:11:36.583Z,84.87
2023-11-12T04:12:36.581Z,84.77
2023-11-12T04:13:36.540Z,84.62
2023-11-12T04:14:36.542Z,84.72
2023-11-12T04:15:36.551Z,84.72
2023-11-12T04:16:36.537Z,84.83
2023-11-12T04:17:36.522Z,85.03
2023-11-12T04:18:36.504Z,85.14
2023-11-12T04:19:36.486Z,84.93
2023-11-12T04:20:36.489Z,84.93
2023-11-12T04:21:36.523Z,84.93
2023-11-12T04:22:36.468Z,84.72
2023-11-12T04:23:36.440Z,84.83
2023-11-12T04:24:36.492Z,85.03
2023-11-12T04:25:36.447Z,84.83
2023-11-12T04:26:36.426Z,84.42
2023-11-12T04:27:36.415Z,84.62
2023-11-12T04:28:36.402Z,84.72
2023-11-12T04:29:36.375Z,84.72
2023-11-12T04:30:36.389Z,84.83
2023-11-12T04:31:36.512Z,84.93
2023-11-12T04:32:36.441Z,84.72
2023-11-12T04:33:36.401Z,84.52
2023-11-12T04:34:36.340Z,84.31
2023-11-12T04:35:36.317Z,84.42
2023-11-12T04:36:36.633Z,84.31
2023-11-12T04:37:36.294Z,84.62
2023-11-12T04:38:36.305Z,84.21
2023-11-12T04:39:36.313Z,84.42
2023-11-12T04:40:36.299Z,84.72
2023-11-12T04:41:36.282Z,84.72
2023-11-12T04:42:36.299Z,84.93
2023-11-12T04:43:36.238Z,84.93
2023-11-12T04:44:36.244Z,84.52
2023-11-12T04:45:36.750Z,84.31
2023-11-12T04:46:36.263Z,84.42
2023-11-12T04:47:36.238Z,84.62
2023-11-12T04:48:36.328Z,84.72
2023-11-12T04:49:36.169Z,84.52
2023-11-12T04:50:36.171Z,84.21
2023-11-12T04:51:36.201Z,84.11
2023-11-12T04:52:36.151Z,84.52
2023-11-12T04:53:36.134Z,84.62
2023-11-12T04:54:36.199Z,84.52
2023-11-12T04:55:36.135Z,84.72
2023-11-12T04:56:36.132Z,84.72
2023-11-12T04:57:36.106Z,84.62
2023-11-12T04:58:36.143Z,84.72
2023-11-12T04:59:36.069Z,85.14
2023-11-12T05:00:36.108Z,85.14
2023-11-12T05:01:36.100Z,85.03
2023-11-12T05:02:36.091Z,84.72
2023-11-12T05:03:36.126Z,84.62
2023-11-12T05:04:36.109Z,84.62
2023-11-12T05:05:36.062Z,84.62
2023-11-12T05:06:36.116Z,84.72
2023-11-12T05:07:35.989Z,84.52
2023-11-12T05:08:36.019Z,84.83
2023-11-12T05:09:35.982Z,84.31
2023-11-12T05:10:44.820Z,84.52
2023-11-12T05:11:35.969Z,84.72
2023-11-12T05:12:36.169Z,84.42
2023-11-12T05:13:35.980Z,84.42
2023-11-12T05:14:35.929Z,84.21
2023-11-12T05:15:35.920Z,84.31
2023-11-12T05:16:35.979Z,84.62
2023-11-12T05:17:35.960Z,84.52
2023-11-12T05:18:35.899Z,84.72
2023-11-12T05:19:35.880Z,84.42
2023-11-12T05:20:35.881Z,84.31
2023-11-12T05:21:35.886Z,84.52
2023-11-12T05:22:35.997Z,84.72
2023-11-12T05:23:35.840Z,84.93
2023-11-12T05:24:35.899Z,84.72
2023-11-12T05:25:35.805Z,84.62
2023-11-12T05:26:35.836Z,84.72
2023-11-12T05:27:35.825Z,84.93
2023-11-12T05:28:35.793Z,84.72
2023-11-12T05:29:35.785Z,84.72
2023-11-12T05:30:35.914Z,85.14
2023-11-12T05:31:35.899Z,84.93
2023-11-12T05:32:35.912Z,84.83
2023-11-12T05:33:35.779Z,84.87
2023-11-12T05:34:35.750Z,84.93
2023-11-12T05:35:35.718Z,85.14
2023-11-12T05:36:35.806Z,84.93
2023-11-12T05:37:35.700Z,84.72
2023-11-12T05:38:35.696Z,84.93
2023-11-12T05:39:35.693Z,84.83
2023-11-12T05:40:35.692Z,84.97
2023-11-12T05:41:35.676Z,84.45
2023-11-12T05:42:35.777Z,84.52
2023-11-12T05:43:35.670Z,84.72
2023-11-12T05:44:35.663Z,84.72
2023-11-12T05:45:35.659Z,84.42
2023-11-12T05:46:35.737Z,84.31
2023-11-12T05:47:35.660Z,84.31
2023-11-12T05:48:35.616Z,84.42
2023-11-12T05:49:35.583Z,84.52
2023-11-12T05:50:35.586Z,84.62
2023-11-12T05:51:36.151Z,84.93
2023-11-12T05:52:35.573Z,85.03
2023-11-12T05:53:35.543Z,85.03
2023-11-12T05:54:35.541Z,84.62
2023-11-12T05:55:35.512Z,84.72
2023-11-12T05:56:35.541Z,84.62
2023-11-12T05:57:35.513Z,84.52
2023-11-12T05:58:36.327Z,84.62
2023-11-12T05:59:35.472Z,84.62
2023-11-12T06:00:35.507Z,84.42
2023-11-12T06:01:35.502Z,84.21
2023-11-12T06:02:35.464Z,84.11
2023-11-12T06:03:35.538Z,84.42
2023-11-12T06:04:35.545Z,84.31
2023-11-12T06:05:35.419Z,84.31
2023-11-12T06:06:35.461Z,84.52
2023-11-12T06:07:35.403Z,84.42
2023-11-12T06:08:35.403Z,84.52
2023-11-12T06:09:35.480Z,84.52
2023-11-12T06:10:35.382Z,84.52
2023-11-12T06:11:35.374Z,84.62
2023-11-12T06:12:35.397Z,84.62
2023-11-12T06:13:35.379Z,84.72
2023-11-12T06:14:35.329Z,84.93
2023-11-12T06:15:35.363Z,85.03
2023-11-12T06:16:35.339Z,85.14
2023-11-12T06:17:35.330Z,85.03
2023-11-12T06:18:35.332Z,85.24
2023-11-12T06:19:35.291Z,84.93
2023-11-12T06:20:35.278Z,84.93
2023-11-12T06:21:35.423Z,84.72
2023-11-12T06:22:35.247Z,84.72
2023-11-12T06:23:35.250Z,84.72
2023-11-12T06:24:35.303Z,84.42
2023-11-12T06:25:35.216Z,84.31
2023-11-12T06:26:35.239Z,84.11
2023-11-12T06:27:36.934Z,84.21
2023-11-12T06:28:35.215Z,84.42
2023-11-12T06:29:35.180Z,84.42
2023-11-12T06:30:35.214Z,84.52
2023-11-12T06:31:35.188Z,84.62
2023-11-12T06:32:35.179Z,84.52
2023-11-12T06:33:35.192Z,84.62
2023-11-12T06:34:35.139Z,84.31
2023-11-12T06:35:35.108Z,84.31
2023-11-12T06:36:35.240Z,84.21
2023-11-12T06:37:35.109Z,84.21
2023-11-12T06:38:35.111Z,84.31
2023-11-12T06:39:35.151Z,84.31
2023-11-12T06:40:35.073Z,84.62
2023-11-12T06:41:35.084Z,84.42
2023-11-12T06:42:35.078Z,84.42
2023-11-12T06:43:35.033Z,84.52
2023-11-12T06:44:35.036Z,84.62
2023-11-12T06:45:35.066Z,84.93
2023-11-12T06:46:35.052Z,84.83
2023-11-12T06:47:35.033Z,85.03
2023-11-12T06:48:35.027Z,85.14
2023-11-12T06:49:34.977Z,84.93
2023-11-12T06:50:34.969Z,84.83
2023-11-12T06:51:35.027Z,84.93
2023-11-12T06:52:34.972Z,84.83
2023-11-12T06:53:34.934Z,84.62
2023-11-12T06:54:34.960Z,84.31
2023-11-12T06:55:34.909Z,84.52
2023-11-12T06:56:34.953Z,84.72
2023-11-12T06:57:35.012Z,84.72
2023-11-12T06:58:34.909Z,84.72
2023-11-12T06:59:34.883Z,84.62
2023-11-12T07:00:34.886Z,84.31
2023-11-12T07:01:34.899Z,84.21
2023-11-12T07:02:34.873Z,84.52
2023-11-12T07:03:37.594Z,84.42
2023-11-12T07:04:35.008Z,84.31
2023-11-12T07:05:34.826Z,84.31
2023-11-12T07:06:34.851Z,84.00
2023-11-12T07:07:34.785Z,84.31
2023-11-12T07:08:34.828Z,84.31
2023-11-12T07:09:34.948Z,84.42
2023-11-12T07:10:34.784Z,84.21
2023-11-12T07:11:34.784Z,84.00
2023-11-12T07:12:34.808Z,84.00
2023-11-12T07:13:34.745Z,84.21
2023-11-12T07:14:34.754Z,84.00
2023-11-12T07:15:34.772Z,83.80
2023-11-12T07:16:34.791Z,83.90
2023-11-12T07:17:36.855Z,84.11
2023-11-12T07:18:45.399Z,84.21
2023-11-12T07:19:34.672Z,84.21
2023-11-12T07:20:34.670Z,84.11
2023-11-12T07:21:34.692Z,84.17
2023-11-12T07:22:34.656Z,84.07
2023-11-12T07:23:34.642Z,84.07
2023-11-12T07:24:34.655Z,84.17
2023-11-12T07:25:34.605Z,84.17
2023-11-12T07:26:34.623Z,83.45
2023-11-12T07:27:34.618Z,83.25
2023-11-12T07:28:34.589Z,83.35
2023-11-12T07:29:34.600Z,83.25
2023-11-12T07:30:34.675Z,83.35
2023-11-12T07:31:34.712Z,83.86
2023-11-12T07:32:34.563Z,83.97
2023-11-12T07:33:34.564Z,83.97
2023-11-12T07:34:34.578Z,84.07
2023-11-12T07:35:34.539Z,84.07
2023-11-12T07:36:34.569Z,84.17
2023-11-12T07:37:34.483Z,83.86
2023-11-12T07:38:34.486Z,83.76
2023-11-12T07:39:34.599Z,83.86
2023-11-12T07:40:34.457Z,83.65
2023-11-12T07:41:34.477Z,83.35
2023-11-12T07:42:34.468Z,83.11
2023-11-12T07:43:34.424Z,83.41
2023-11-12T07:44:34.437Z,83.41
2023-11-12T07:45:40.189Z,83.51
2023-11-12T07:46:34.556Z,83.83
2023-11-12T07:47:35.513Z,83.41
2023-11-12T07:48:34.474Z,83.31
2023-11-12T07:49:34.390Z,83.31
2023-11-12T07:50:34.367Z,83.11
2023-11-12T07:51:34.367Z,82.48
2023-11-12T07:52:34.343Z,82.69
2023-11-12T07:53:34.331Z,82.45
2023-11-12T07:54:34.348Z,82.34
2023-11-12T07:55:34.313Z,82.14
2023-11-12T07:56:39.735Z,82.48
2023-11-12T07:57:34.339Z,82.45
2023-11-12T07:58:34.281Z,82.45
2023-11-12T07:59:34.328Z,82.34
2023-11-12T08:00:34.285Z,82.55
2023-11-12T08:01:34.885Z,82.55
2023-11-12T08:02:34.270Z,82.65
2023-11-12T08:03:34.291Z,82.65
2023-11-12T08:04:34.334Z,82.45
2023-11-12T08:05:34.228Z,82.34
2023-11-12T08:06:34.225Z,82.34
2023-11-12T08:07:34.237Z,82.45
2023-11-12T08:08:34.194Z,81.73
2023-11-12T08:09:34.163Z,81.93
2023-11-12T08:10:34.165Z,82.45
2023-11-12T08:11:34.195Z,82.65
2023-11-12T08:12:34.157Z,82.14
2023-11-12T08:13:34.254Z,81.52
2023-11-12T08:14:34.152Z,81.38
2023-11-12T08:15:34.167Z,81.48
2023-11-12T08:16:34.183Z,81.62
2023-11-12T08:17:34.109Z,81.93
2023-11-12T08:18:34.106Z,82.20
2023-11-12T08:19:34.086Z,82.20
2023-11-12T08:20:34.068Z,81.59
2023-11-12T08:21:34.102Z,81.48
2023-11-12T08:22:34.041Z,81.48
2023-11-12T08:23:34.071Z,81.90
2023-11-12T08:24:34.048Z,81.48
2023-11-12T08:25:33.989Z,80.77
2023-11-12T08:26:34.008Z,80.73
2023-11-12T08:27:34.022Z,80.93
2023-11-12T08:28:33.969Z,80.52
2023-11-12T08:29:34.001Z,80.73
2023-11-12T08:30:34.031Z,80.83
2023-11-12T08:31:33.961Z,81.34
2023-11-12T08:32:34.010Z,81.24
2023-11-12T08:33:34.119Z,80.83
2023-11-12T08:34:34.000Z,80.63
2023-11-12T08:35:34.035Z,80.52
2023-11-12T08:36:34.071Z,80.01
2023-11-12T08:37:34.154Z,80.73
2023-11-12T08:38:33.877Z,80.21
2023-11-12T08:39:33.899Z,80.21
2023-11-12T08:40:33.869Z,80.28
2023-11-12T08:41:33.857Z,79.77
2023-11-12T08:42:33.845Z,80.18
2023-11-12T08:43:33.984Z,79.91
2023-11-12T08:44:33.845Z,79.77
2023-11-12T08:45:33.879Z,80.38
2023-11-12T08:46:33.943Z,80.38
2023-11-12T08:47:33.886Z,80.69
2023-11-12T08:48:33.832Z,80.69
2023-11-12T08:49:33.756Z,79.87
2023-11-12T08:50:33.767Z,79.15
2023-11-12T08:51:34.726Z,78.94
2023-11-12T08:52:33.744Z,79.05
2023-11-12T08:53:33.771Z,78.88
2023-11-12T08:54:33.808Z,78.88
2023-11-12T08:55:33.717Z,79.49
2023-11-12T08:56:33.922Z,79.46
2023-11-12T08:57:33.753Z,79.60
2023-11-12T08:58:33.677Z,79.39
2023-11-12T08:59:33.645Z,79.70
2023-11-12T09:00:33.664Z,80.01
2023-11-12T09:01:33.746Z,80.21
2023-11-12T09:02:33.672Z,80.01
2023-11-12T09:03:33.797Z,79.29
2023-11-12T09:04:33.796Z,80.21
2023-11-12T09:05:36.650Z,80.01
2023-11-12T09:06:33.645Z,79.91
2023-11-12T09:07:33.596Z,79.97
2023-11-12T09:08:33.566Z,80.11
2023-11-12T09:09:33.566Z,79.15
2023-11-12T09:10:33.546Z,78.67
2023-11-12T09:11:33.531Z,78.78
2023-11-12T09:12:34.726Z,78.78
2023-11-12T09:13:33.495Z,78.94
2023-11-12T09:14:33.552Z,78.98
2023-11-12T09:15:33.626Z,79.08
2023-11-12T09:16:33.677Z,79.66
2023-11-12T09:17:33.562Z,79.66
2023-11-12T09:18:33.586Z,79.46
2023-11-12T09:19:33.452Z,78.53
2023-11-12T09:20:33.445Z,78.85
2023-11-12T09:21:33.520Z,77.92
2023-11-12T09:22:33.428Z,78.43
2023-11-12T09:23:33.477Z,78.94
2023-11-12T09:24:33.630Z,78.85
2023-11-12T09:25:33.428Z,78.91
2023-11-12T09:26:33.523Z,78.50
2023-11-12T09:27:33.417Z,77.98
2023-11-12T09:28:33.369Z,78.81
2023-11-12T09:29:33.376Z,77.88
2023-11-12T09:30:44.475Z,77.58
2023-11-12T09:31:34.846Z,77.98
2023-11-12T09:32:33.436Z,78.67
2023-11-12T09:33:33.360Z,78.56
2023-11-12T09:34:33.313Z,77.23
2023-11-12T09:35:33.302Z,77.23
2023-11-12T09:36:33.316Z,77.64
2023-11-12T09:37:33.240Z,77.74
2023-11-12T09:38:33.786Z,77.64
2023-11-12T09:39:33.239Z,76.62
2023-11-12T09:40:33.210Z,75.69
2023-11-12T09:41:33.208Z,76.41
2023-11-12T09:42:33.215Z,76.00
2023-11-12T09:43:33.186Z,75.18
2023-11-12T09:44:33.194Z,75.38
2023-11-12T09:45:33.197Z,76.00
2023-11-12T09:46:33.207Z,75.90
2023-11-12T09:47:33.169Z,75.28
2023-11-12T09:48:33.187Z,75.59
2023-11-12T09:49:33.119Z,75.59
2023-11-12T09:50:33.122Z,75.79
2023-11-12T09:51:33.210Z,76.00
2023-11-12T09:52:33.120Z,75.90
2023-11-12T09:53:35.062Z,75.90
2023-11-12T09:54:33.087Z,75.79
2023-11-12T09:55:33.105Z,74.36
2023-11-12T09:56:33.081Z,75.28
2023-11-12T09:57:33.099Z,74.57
2023-11-12T09:58:33.026Z,74.70
2023-11-12T09:59:33.009Z,75.28
2023-11-12T10:00:33.016Z,75.69
2023-11-12T10:01:33.031Z,76.10
2023-11-12T10:02:33.072Z,76.00
2023-11-12T10:03:33.014Z,76.04
2023-11-12T10:04:33.069Z,75.32
2023-11-12T10:05:33.012Z,75.93
2023-11-12T10:06:33.068Z,75.83
2023-11-12T10:07:32.931Z,75.93
2023-11-12T10:08:32.919Z,76.14
2023-11-12T10:09:32.933Z,76.34
2023-11-12T10:10:32.921Z,77.37
2023-11-12T10:11:32.903Z,76.34
2023-11-12T10:12:32.887Z,75.83
2023-11-12T10:13:32.883Z,75.11
2023-11-12T10:14:32.853Z,76.04
2023-11-12T10:15:32.916Z,74.70
2023-11-12T10:16:33.554Z,74.60
2023-11-12T10:17:32.863Z,74.98
2023-11-12T10:18:32.853Z,75.11
2023-11-12T10:19:32.788Z,74.60
2023-11-12T10:20:32.805Z,73.98
2023-11-12T10:21:32.819Z,74.29
2023-11-12T10:22:32.776Z,74.91
2023-11-12T10:23:33.795Z,74.91
2023-11-12T10:24:32.874Z,75.52
2023-11-12T10:25:32.743Z,75.49
2023-11-12T10:26:32.759Z,76.10
2023-11-12T10:27:32.717Z,76.10
2023-11-12T10:28:32.711Z,76.31
2023-11-12T10:29:32.693Z,76.55
2023-11-12T10:30:32.769Z,76.34
2023-11-12T10:31:32.809Z,77.17
2023-11-12T10:32:32.701Z,76.45
2023-11-12T10:33:32.727Z,76.14
2023-11-12T10:34:32.658Z,75.73
2023-11-12T10:35:32.712Z,75.73
2023-11-12T10:36:32.953Z,76.24
2023-11-12T10:37:32.617Z,76.55
2023-11-12T10:38:32.607Z,76.34
2023-11-12T10:39:32.633Z,76.86
2023-11-12T10:40:32.607Z,76.75
2023-11-12T10:41:32.617Z,75.73
2023-11-12T10:42:32.617Z,76.20
2023-11-12T10:43:32.635Z,76.45
2023-11-12T10:44:32.538Z,76.92
2023-11-12T10:45:32.602Z,76.72
2023-11-12T10:46:32.590Z,76.72
2023-11-12T10:47:32.545Z,76.72
2023-11-12T10:48:32.563Z,76.10
2023-11-12T10:49:32.472Z,76.31
2023-11-12T10:50:32.487Z,75.38
2023-11-12T10:51:32.482Z,75.79
2023-11-12T10:52:32.487Z,75.59
2023-11-12T10:53:32.865Z,75.28
2023-11-12T10:54:32.527Z,75.79
2023-11-12T10:55:32.426Z,76.10
2023-11-12T10:56:32.436Z,74.66
2023-11-12T10:57:32.467Z,75.69
2023-11-12T10:58:32.475Z,74.98
2023-11-12T10:59:32.443Z,74.57
2023-11-12T11:00:32.444Z,75.38
2023-11-12T11:01:32.450Z,75.79
2023-11-12T11:02:32.353Z,75.49
2023-11-12T11:03:32.457Z,75.59
2023-11-12T11:04:32.427Z,75.04
2023-11-12T11:05:32.330Z,75.04
2023-11-12T11:06:32.374Z,76.37
2023-11-12T11:07:32.312Z,76.07
2023-11-12T11:08:32.778Z,75.66
2023-11-12T11:09:32.325Z,76.20
2023-11-12T11:10:32.323Z,76.07
2023-11-12T11:11:32.263Z,75.86
2023-11-12T11:12:32.323Z,76.41
2023-11-12T11:13:32.332Z,76.37
2023-11-12T11:14:32.269Z,76.41
2023-11-12T11:15:32.236Z,76.78
2023-11-12T11:16:33.788Z,76.89
2023-11-12T11:17:32.272Z,77.03
2023-11-12T11:18:32.379Z,77.13
2023-11-12T11:19:32.169Z,76.10
2023-11-12T11:20:32.224Z,76.62
2023-11-12T11:21:32.223Z,76.41
2023-11-12T11:22:32.149Z,76.51
2023-11-12T11:23:32.162Z,76.72
2023-11-12T11:24:32.270Z,76.62
2023-11-12T11:25:32.111Z,76.72
2023-11-12T11:26:32.123Z,77.44
2023-11-12T11:27:32.134Z,77.84
2023-11-12T11:28:32.092Z,77.84
2023-11-12T11:29:32.089Z,77.44
2023-11-12T11:30:32.077Z,77.23
2023-11-12T11:31:32.042Z,77.74
2023-11-12T11:32:32.141Z,77.54
2023-11-12T11:33:32.134Z,77.64
2023-11-12T11:34:32.063Z,78.05
2023-11-12T11:35:32.098Z,77.95
2023-11-12T11:36:32.050Z,78.16
2023-11-12T11:37:32.072Z,78.16
2023-11-12T11:38:31.978Z,78.05
2023-11-12T11:39:32.025Z,78.16
2023-11-12T11:40:31.979Z,78.19
2023-11-12T11:41:31.948Z,78.09
2023-11-12T11:42:31.988Z,78.29
2023-11-12T11:43:31.930Z,78.46
2023-11-12T11:44:32.222Z,78.67
2023-11-12T11:45:31.979Z,78.56
2023-11-12T11:46:32.175Z,78.77
2023-11-12T11:47:31.916Z,78.77
2023-11-12T11:48:31.935Z,78.67
2023-11-12T11:49:31.852Z,79.32
2023-11-12T11:50:45.825Z,79.22
2023-11-12T11:51:31.866Z,78.77
2023-11-12T11:52:31.842Z,78.60
2023-11-12T11:53:31.853Z,78.67
2023-11-12T11:54:31.872Z,78.70
2023-11-12T11:55:31.818Z,78.50
2023-11-12T11:56:31.805Z,78.81
2023-11-12T11:57:31.822Z,79.11
2023-11-12T11:58:31.765Z,79.01
2023-11-12T11:59:31.746Z,79.01
2023-11-12T12:00:31.755Z,78.81
2023-11-12T12:01:31.758Z,79.22
2023-11-12T12:02:31.758Z,79.01
2023-11-12T12:03:31.716Z,79.42
2023-11-12T12:04:31.734Z,80.14
2023-11-12T12:05:31.711Z,80.41
2023-11-12T12:06:31.716Z,80.21
2023-11-12T12:07:31.671Z,80.10
2023-11-12T12:08:31.670Z,79.59
2023-11-12T12:09:31.657Z,79.49
2023-11-12T12:10:31.639Z,79.49
2023-11-12T12:11:31.624Z,78.36
2023-11-12T12:12:31.709Z,78.67
2023-11-12T12:13:31.592Z,79.28
2023-11-12T12:14:31.647Z,78.87
2023-11-12T12:15:31.612Z,79.18
2023-11-12T12:16:31.652Z,79.14
2023-11-12T12:17:31.776Z,78.97
2023-11-12T12:18:31.617Z,78.94
2023-11-12T12:19:31.554Z,78.83
2023-11-12T12:20:31.582Z,78.22
2023-11-12T12:21:31.519Z,78.94
2023-11-12T12:22:31.557Z,78.42
2023-11-12T12:23:31.528Z,78.12
2023-11-12T12:24:31.529Z,78.42
2023-11-12T12:25:31.490Z,78.63
2023-11-12T12:26:31.485Z,78.12
2023-11-12T12:27:31.543Z,77.71
2023-11-12T12:28:31.467Z,77.91
2023-11-12T12:29:31.505Z,78.53
2023-11-12T12:30:31.628Z,78.42
2023-11-12T12:31:31.422Z,78.42
2023-11-12T12:32:31.459Z,78.63
2023-11-12T12:33:31.444Z,78.53
2023-11-12T12:34:31.474Z,78.74
2023-11-12T12:35:31.385Z,78.74
2023-11-12T12:36:31.416Z,78.32
2023-11-12T12:37:31.382Z,78.12
2023-11-12T12:38:31.351Z,78.42
2023-11-12T12:39:31.400Z,78.22
2023-11-12T12:40:31.513Z,78.12
2023-11-12T12:41:31.306Z,77.81
2023-11-12T12:42:31.338Z,77.40
2023-11-12T12:43:31.303Z,77.29
2023-11-12T12:44:31.310Z,77.81
2023-11-12T12:45:31.420Z,78.02
2023-11-12T12:46:31.300Z,76.48
2023-11-12T12:47:31.322Z,76.89
2023-11-12T12:48:31.316Z,75.66
2023-11-12T12:49:31.218Z,76.07
2023-11-12T12:50:31.460Z,75.56
2023-11-12T12:51:31.231Z,76.27
2023-11-12T12:52:31.223Z,76.20